Los Angeles, California
Traffic Map
Current Weather Conditions
Los Angeles, California
Clear
Clear
80°
Feels Like: 80°
Wind Chill: 80° Ceiling: Unl
Heat Index: 80° Visibility: 10mi
Dew Point: 21° Wind: 8mph
Humidity: 11% Direction: 270° (W)
Pressure: 29.98in Gusts: 0mph
Raw Report DataKCQT 292147Z AUTO 27007KT 10SM CLR 27/M06 A2998 RMK AO2 SLP150 T02671061
Traffic Incident Summary
Active as of:
Severity:
Category:
InformationThere was an issue retrieving the traffic information for this location. Please try a different location or try again shortly.
Advertisements
Track Severe Weather on mobile